LYBE/BEG METAR and TAF weather

Enter ICAO airport designator
Station Type Date Time Source
LYBE METAR 2017/07/25 14:00 UTC NOAA

LYBE 251400Z 30010KT 280V340 9999 BKN040 23/14 Q1006 NOSIG


Station Type Date Time Source
LYBE Decoded METAR 2017/07/25 14:00 UTC NOAA

Beograd / Surcin, Serbia and Montenegro (LYBE) 44-49N 020-17E 99M
Jul 25, 2017 - 10:00 AM EDT / 2017.07.25 1400 UTC
Wind: from the WNW (300 degrees) at 12 MPH (10 KT) (direction variable):0
Visibility: greater than 7 mile(s):0
Sky conditions: mostly cloudy
Temperature: 73 F (23 C)
Dew Point: 57 F (14 C)
Relative Humidity: 56%
Pressure (altimeter): 29.71 in. Hg (1006 hPa)
ob: LYBE 251400Z 30010KT 280V340 9999 BKN040 23/14 Q1006 NOSIG
cycle: 14

Station Type Date Time Source
LYBE TAF 2017/07/25 12:25 UTC NOAA

TAF LYBE 251100Z 2512/2612 30012KT 9999 SCT015 BKN033 TX26/2612Z TN15/2604Z
BECMG 2518/2520 22004KT


Example: see airport list